»·PEaware :: N831MP KLAS-KPHX

N831MP :: KLAS-KPHX

FLIGHT INFORMATION

Flight Status: Arrived
Operator: Privately registered:
United States
More flights under this callsign
Pilot: Michael P. (16839)
Aircraft: SOCATA TBM-900
(TBM9)
More flights by this aircraft type
Origin: KLAS McCarran Intl
United States
Destination: KPHX Phoenix Sky Harbor Intl
United States
More flights between these airports :: More routes between these airports
Route: LAS V562 DRK COYOT5
File this flight plan on PilotEdge
Remarks:
Altitude:
(Current/Filed)
170ft
Speed:
(Current/Filed)
330kts
Departed: 10-Jan-21 03:04 PM
Arrived: 10-Jan-21 04:11 PM
Distance/Time
Traveled:
222nm/1:07
Distance/Time
To Go:
Arrived

Flight Plot

Page will automatically refresh every two minutes.

Flight plan parsing failed; only flown route is shown


Map Options




Map Legend


Flown Route
Filed Route
Departure Airport
Arrival Airport
Navaid (VOR, NDB)
Fix

Horizontal Profiles

Position Reports

Time Latitude Longitude Heading Altitude Ground
Speed
10-Jan-21 14:34 36.100142 -115.162902 6 2100ft 0kts
10-Jan-21 14:35 36.100142 -115.162902 6 2100ft 0kts
10-Jan-21 14:36 36.100142 -115.162902 6 2100ft 0kts
10-Jan-21 14:37 36.100142 -115.162902 6 2100ft 0kts
10-Jan-21 14:38 36.100142 -115.162902 6 2100ft 0kts
10-Jan-21 14:39 36.100142 -115.162902 6 2100ft 0kts
10-Jan-21 14:40 36.100142 -115.162902 6 2100ft 0kts
10-Jan-21 14:41 36.100142 -115.162902 6 2100ft 0kts
10-Jan-21 14:42 36.100142 -115.162902 6 2100ft 0kts
10-Jan-21 14:43 36.100142 -115.162902 6 2100ft 0kts
10-Jan-21 14:44 36.100142 -115.162902 6 2100ft 0kts
10-Jan-21 14:45 36.100142 -115.162902 6 2100ft 0kts
10-Jan-21 14:46 36.100142 -115.162902 6 2100ft 0kts
10-Jan-21 14:47 36.100142 -115.162902 6 2100ft 0kts
10-Jan-21 14:48 36.100142 -115.162902 6 2100ft 0kts
10-Jan-21 14:49 36.100142 -115.162902 6 2100ft 0kts
10-Jan-21 14:50 36.100142 -115.162902 6 2100ft 0kts
10-Jan-21 14:51 36.100142 -115.162902 6 2100ft 0kts
10-Jan-21 14:52 36.099855 -115.162941 7 2101ft 1kts
10-Jan-21 14:53 36.099844 -115.162942 9 2101ft 0kts
10-Jan-21 14:54 36.099844 -115.162942 9 2101ft 0kts
10-Jan-21 14:55 36.099844 -115.162942 9 2101ft 0kts
10-Jan-21 14:56 36.099711 -115.162820 102 2101ft 15kts
10-Jan-21 14:57 36.099276 -115.159945 109 2097ft 0kts
10-Jan-21 14:58 36.099276 -115.159945 109 2097ft 0kts
10-Jan-21 14:59 36.099276 -115.159945 109 2097ft 0kts
10-Jan-21 15:00 36.099292 -115.158579 130 2095ft 6kts
10-Jan-21 15:01 36.099821 -115.157741 70 2092ft 0kts
10-Jan-21 15:02 36.099821 -115.157741 70 2092ft 0kts
10-Jan-21 15:03 36.092079 -115.160713 203 2236ft 109kts
10-Jan-21 15:04 36.051591 -115.180276 202 4010ft 189kts
10-Jan-21 15:05 35.996719 -115.205880 201 5787ft 232kts
10-Jan-21 15:06 35.934718 -115.234432 201 7110ft 223kts
10-Jan-21 15:07 35.884370 -115.227957 106 8890ft 205kts
10-Jan-21 15:08 35.863312 -115.162005 98 10715ft 207kts
10-Jan-21 15:09 35.866209 -115.091934 90 12542ft 210kts
10-Jan-21 15:10 35.856353 -115.019609 95 14229ft 218kts
10-Jan-21 15:11 35.845030 -114.944711 95 16025ft 226kts
10-Jan-21 15:12 35.832665 -114.863130 96 16959ft 266kts
10-Jan-21 15:13 35.818264 -114.768535 96 16999ft 290kts
10-Jan-21 15:14 35.803198 -114.670275 96 17022ft 293kts
10-Jan-21 15:15 35.788007 -114.571413 96 17000ft 293kts
10-Jan-21 15:16 35.772678 -114.472534 96 17059ft 293kts
10-Jan-21 15:17 35.757350 -114.374092 96 17093ft 294kts
10-Jan-21 15:18 35.741881 -114.275323 96 17091ft 295kts
10-Jan-21 15:19 35.726274 -114.176230 96 17081ft 294kts
10-Jan-21 15:20 35.710662 -114.077652 97 17078ft 293kts
10-Jan-21 15:21 35.695031 -113.979497 97 17076ft 292kts
10-Jan-21 15:22 35.679291 -113.881183 97 17091ft 292kts
10-Jan-21 15:23 35.663508 -113.783166 97 17075ft 292kts
10-Jan-21 15:24 35.647732 -113.685756 98 17078ft 291kts
10-Jan-21 15:25 35.631757 -113.587598 98 17078ft 295kts
10-Jan-21 15:26 35.589042 -113.502071 135 17065ft 302kts
10-Jan-21 15:27 35.527873 -113.431099 134 17080ft 302kts
10-Jan-21 15:28 35.467116 -113.360120 134 17079ft 302kts
10-Jan-21 15:29 35.406301 -113.289234 135 17083ft 301kts
10-Jan-21 15:30 35.345504 -113.218582 135 17077ft 301kts
10-Jan-21 15:31 35.284816 -113.148160 135 17084ft 300kts
10-Jan-21 15:32 35.224139 -113.077984 135 17093ft 301kts
10-Jan-21 15:33 35.163343 -113.007712 135 17168ft 298kts
10-Jan-21 15:34 35.102926 -112.938076 135 17242ft 300kts
10-Jan-21 15:35 35.041795 -112.867770 135 17254ft 302kts
10-Jan-21 15:36 34.980549 -112.797486 135 17242ft 303kts
10-Jan-21 15:37 34.918967 -112.726962 135 17227ft 304kts
10-Jan-21 15:38 34.857204 -112.656383 135 17205ft 304kts
10-Jan-21 15:40 34.795324 -112.585828 135 17096ft 307kts
10-Jan-21 15:41 34.733157 -112.515085 135 17056ft 305kts
10-Jan-21 15:42 34.669048 -112.447442 138 17072ft 304kts
10-Jan-21 15:43 34.602104 -112.382046 139 15193ft 311kts
10-Jan-21 15:44 34.536858 -112.318309 140 14123ft 291kts
10-Jan-21 15:45 34.474485 -112.257572 140 14060ft 284kts
10-Jan-21 15:46 34.402966 -112.218557 169 14056ft 285kts
10-Jan-21 15:47 34.325099 -112.198799 167 14057ft 285kts
10-Jan-21 15:48 34.246740 -112.178518 167 13712ft 293kts
10-Jan-21 15:49 34.166830 -112.157889 167 13137ft 297kts
10-Jan-21 15:50 34.088981 -112.137824 167 11448ft 273kts
10-Jan-21 15:51 34.015316 -112.118839 167 11038ft 266kts
10-Jan-21 15:52 33.943490 -112.100401 167 11015ft 262kts
10-Jan-21 15:53 33.872062 -112.082061 166 10301ft 253kts
10-Jan-21 15:54 33.805250 -112.064994 166 9191ft 258kts
10-Jan-21 15:54 33.744219 -112.049386 166 8299ft 271kts
10-Jan-21 15:56 33.661030 -112.028166 166 8024ft 255kts
10-Jan-21 15:57 33.591922 -112.010708 167 8017ft 252kts
10-Jan-21 15:57 33.535447 -111.996177 166 8011ft 238kts
10-Jan-21 15:58 33.473618 -111.980483 166 7993ft 220kts
10-Jan-21 15:59 33.414593 -111.967028 168 7546ft 209kts
10-Jan-21 16:00 33.370551 -111.984642 256 6743ft 191kts
10-Jan-21 16:01 33.359880 -112.046758 260 5696ft 196kts
10-Jan-21 16:02 33.349964 -112.111851 260 4337ft 198kts
10-Jan-21 16:03 33.348167 -112.169879 301 3826ft 156kts
10-Jan-21 16:04 33.378022 -112.189310 32 2968ft 117kts
10-Jan-21 16:05 33.396914 -112.162226 57 2732ft 89kts
10-Jan-21 16:06 33.412639 -112.138397 49 2963ft 98kts
10-Jan-21 16:07 33.427414 -112.109780 77 2496ft 102kts
10-Jan-21 16:08 33.429030 -112.076419 88 1957ft 99kts
10-Jan-21 16:09 33.428890 -112.044684 88 1466ft 90kts
10-Jan-21 16:10 33.428892 -112.018128 93 1120ft 38kts
10-Jan-21 16:11 33.428085 -112.016577 177 1124ft 0kts
10-Jan-21 16:12 33.427752 -112.018619 267 1118ft 19kts
10-Jan-21 16:13 33.425584 -112.020809 122 1114ft 9kts
10-Jan-21 16:14 33.425814 -112.020647 4 1114ft 0kts
10-Jan-21 16:15 33.425814 -112.020647 4 1114ft 0kts

Navigation Log

Ident Type
Flight plan parsing failed, navigation log unavailable